createdAt,value
2023-04-12T00:01:56.636Z,69.27
2023-04-12T00:04:29.317Z,69.92
2023-04-12T00:07:01.168Z,70.06
2023-04-12T00:09:30.740Z,70.22
2023-04-12T00:12:00.470Z,70.33
2023-04-12T00:14:27.258Z,70.23
2023-04-12T00:16:53.892Z,69.97
2023-04-12T00:19:25.877Z,70.12
2023-04-12T00:21:52.813Z,69.83
2023-04-12T00:24:21.622Z,69.70
2023-04-12T00:26:48.284Z,69.78
2023-04-12T00:29:16.342Z,69.74
2023-04-12T00:31:43.022Z,69.96
2023-04-12T00:34:12.254Z,70.44
2023-04-12T00:36:38.858Z,70.60
2023-04-12T00:39:06.469Z,70.63
2023-04-12T00:41:39.080Z,70.91
2023-04-12T00:44:05.957Z,70.30
2023-04-12T00:46:36.279Z,70.61
2023-04-12T00:49:03.139Z,70.15
2023-04-12T00:51:34.434Z,70.38
2023-04-12T00:54:01.696Z,70.70
2023-04-12T00:56:32.388Z,70.91
2023-04-12T00:59:02.169Z,70.84
2023-04-12T01:01:28.774Z,70.88
2023-04-12T01:04:01.659Z,71.15
2023-04-12T01:06:30.097Z,71.05
2023-04-12T01:09:00.028Z,71.51
2023-04-12T01:11:38.732Z,71.95
2023-04-12T01:14:05.356Z,71.85
2023-04-12T01:16:44.469Z,72.15
2023-04-12T01:19:20.699Z,72.34
2023-04-12T01:22:06.394Z,72.35
2023-04-12T01:24:53.020Z,72.45
2023-04-12T01:27:39.663Z,72.61
2023-04-12T01:30:13.549Z,72.80
2023-04-12T01:32:40.537Z,72.98
2023-04-12T01:35:09.628Z,73.14
2023-04-12T01:37:38.819Z,73.06
2023-04-12T01:40:06.381Z,73.01
2023-04-12T01:42:32.959Z,72.99
2023-04-12T01:44:59.587Z,73.07
2023-04-12T01:47:27.095Z,72.80
2023-04-12T01:50:04.627Z,72.79
2023-04-12T01:52:31.983Z,72.70
2023-04-12T01:54:58.990Z,72.61
2023-04-12T01:57:28.093Z,72.48
2023-04-12T01:59:55.107Z,72.08
2023-04-12T02:02:23.978Z,71.79
2023-04-12T02:04:51.213Z,71.34
2023-04-12T02:07:20.694Z,70.81
2023-04-12T02:09:47.272Z,70.40
2023-04-12T02:12:13.892Z,70.25
2023-04-12T02:14:43.079Z,69.81
2023-04-12T02:17:13.468Z,69.60
2023-04-12T02:19:40.609Z,69.22
2023-04-12T02:22:08.400Z,68.79
2023-04-12T02:24:37.805Z,68.98
2023-04-12T02:27:06.804Z,68.84
2023-04-12T02:29:37.448Z,68.14
2023-04-12T02:32:04.212Z,68.50
2023-04-12T02:34:34.396Z,68.64
2023-04-12T02:37:13.770Z,68.21
2023-04-12T02:39:41.852Z,68.29
2023-04-12T02:42:09.326Z,68.71
2023-04-12T02:44:40.028Z,68.30
2023-04-12T02:47:12.214Z,67.99
2023-04-12T02:49:42.640Z,68.77
2023-04-12T02:52:14.408Z,68.00
2023-04-12T02:54:56.291Z,68.23
2023-04-12T02:57:23.533Z,68.70
2023-04-12T02:59:56.001Z,68.26
2023-04-12T03:02:41.384Z,67.37
2023-04-12T03:05:14.772Z,67.89
2023-04-12T03:07:46.323Z,68.50
2023-04-12T03:10:14.722Z,68.09
2023-04-12T03:12:46.560Z,68.30
2023-04-12T03:15:15.553Z,68.14
2023-04-12T03:17:46.099Z,68.30
2023-04-12T03:20:14.710Z,68.01
2023-04-12T03:22:48.151Z,68.16
2023-04-12T03:25:14.840Z,67.94
2023-04-12T03:27:52.807Z,68.33
2023-04-12T03:30:22.631Z,68.14
2023-04-12T03:32:52.309Z,68.22
2023-04-12T03:35:19.582Z,68.58
2023-04-12T03:37:47.205Z,68.21
2023-04-12T03:40:15.083Z,67.74
2023-04-12T03:42:48.476Z,67.54
2023-04-12T03:45:15.484Z,68.18
2023-04-12T03:47:46.926Z,67.58
2023-04-12T03:50:17.664Z,67.65
2023-04-12T03:52:51.076Z,67.23
2023-04-12T03:55:18.423Z,66.90
2023-04-12T03:57:47.172Z,66.42
2023-04-12T04:00:17.224Z,67.02
2023-04-12T04:03:03.525Z,66.91
2023-04-12T04:05:34.296Z,67.25
2023-04-12T04:08:02.559Z,67.48
2023-04-12T04:10:38.735Z,66.85
2023-04-12T04:13:07.917Z,66.95
2023-04-12T04:15:35.132Z,66.64
2023-04-12T04:18:02.686Z,66.81
2023-04-12T04:20:30.264Z,66.28
2023-04-12T04:22:58.200Z,66.61
2023-04-12T04:25:32.319Z,66.06
2023-04-12T04:28:02.853Z,66.08
2023-04-12T04:30:34.386Z,66.25
2023-04-12T04:33:03.914Z,65.91
2023-04-12T04:35:31.624Z,65.21
2023-04-12T04:38:18.674Z,65.71
2023-04-12T04:40:46.618Z,65.31
2023-04-12T04:43:18.876Z,65.61
2023-04-12T04:45:48.817Z,65.00
2023-04-12T04:48:18.804Z,65.03
2023-04-12T04:50:45.828Z,63.32
2023-04-12T04:53:13.227Z,62.50
2023-04-12T04:55:42.773Z,62.05
2023-04-12T04:58:09.726Z,62.91
2023-04-12T05:00:44.949Z,62.59
2023-04-12T05:03:12.398Z,62.29
2023-04-12T05:05:39.276Z,62.11
2023-04-12T05:08:09.957Z,61.17
2023-04-12T05:10:37.225Z,61.41
2023-04-12T05:13:03.886Z,61.08
2023-04-12T05:15:31.974Z,60.42
2023-04-12T05:18:02.367Z,60.65
2023-04-12T05:20:32.685Z,60.07
2023-04-12T05:22:59.347Z,60.56
2023-04-12T05:25:26.184Z,60.36
2023-04-12T05:28:01.507Z,60.07
2023-04-12T05:30:28.392Z,59.82
2023-04-12T05:32:58.556Z,59.28
2023-04-12T05:35:29.015Z,59.66
2023-04-12T05:37:59.128Z,59.81
2023-04-12T05:40:31.743Z,58.98
2023-04-12T05:42:59.264Z,59.24
2023-04-12T05:45:30.954Z,59.26
2023-04-12T05:48:00.815Z,59.59
2023-04-12T05:50:28.049Z,59.10
2023-04-12T05:52:57.156Z,59.61
2023-04-12T05:55:31.125Z,59.74
2023-04-12T05:57:58.997Z,60.11
2023-04-12T06:00:28.182Z,60.71
2023-04-12T06:02:55.156Z,59.99
2023-04-12T06:05:24.299Z,60.56
2023-04-12T06:07:50.955Z,60.98
2023-04-12T06:10:18.023Z,60.03
2023-04-12T06:12:48.981Z,60.95
2023-04-12T06:15:20.102Z,60.01
2023-04-12T06:17:53.484Z,60.74
2023-04-12T06:20:22.653Z,61.10
2023-04-12T06:22:49.561Z,60.54
2023-04-12T06:25:17.366Z,59.86
2023-04-12T06:27:51.011Z,60.03
2023-04-12T06:30:19.007Z,60.05
2023-04-12T06:32:48.705Z,59.82
2023-04-12T06:35:20.276Z,59.90
2023-04-12T06:37:49.709Z,59.79
2023-04-12T06:40:18.726Z,59.45
2023-04-12T06:42:45.408Z,59.88
2023-04-12T06:45:18.140Z,59.09
2023-04-12T06:47:47.608Z,58.65
2023-04-12T06:50:14.239Z,58.94
2023-04-12T06:52:43.338Z,58.89
2023-04-12T06:55:10.432Z,58.34
2023-04-12T06:57:41.974Z,58.63
2023-04-12T07:00:14.404Z,59.00
2023-04-12T07:02:41.198Z,58.34
2023-04-12T07:05:11.018Z,57.78
2023-04-12T07:07:37.604Z,57.29
2023-04-12T07:10:04.612Z,57.55
2023-04-12T07:12:31.904Z,57.98
2023-04-12T07:14:58.565Z,57.14
2023-04-12T07:17:27.188Z,57.58
2023-04-12T07:19:54.225Z,56.29
2023-04-12T07:22:21.122Z,57.28
2023-04-12T07:24:48.489Z,56.73
2023-04-12T07:27:16.251Z,56.13
2023-04-12T07:29:47.720Z,55.85
2023-04-12T07:32:14.592Z,55.67
2023-04-12T07:34:41.500Z,54.08
2023-04-12T07:37:10.388Z,54.42
2023-04-12T07:39:39.366Z,55.38
2023-04-12T07:42:08.515Z,54.11
2023-04-12T07:44:38.497Z,54.93
2023-04-12T07:47:08.030Z,53.96
2023-04-12T07:49:35.084Z,54.64
2023-04-12T07:52:01.702Z,55.31
2023-04-12T07:54:28.824Z,54.38
2023-04-12T07:57:03.064Z,53.80
2023-04-12T07:59:30.756Z,54.37
2023-04-12T08:02:00.038Z,54.22
2023-04-12T08:04:28.737Z,53.30
2023-04-12T08:06:58.080Z,53.65
2023-04-12T08:09:27.152Z,53.59
2023-04-12T08:11:56.880Z,54.66
2023-04-12T08:14:26.319Z,54.53
2023-04-12T08:16:53.179Z,53.89
2023-04-12T08:19:20.344Z,54.08
2023-04-12T08:21:47.038Z,54.47
2023-04-12T08:24:13.701Z,54.32
2023-04-12T08:26:40.355Z,53.60
2023-04-12T08:29:07.064Z,52.03
2023-04-12T08:31:34.110Z,49.51
2023-04-12T08:34:03.432Z,50.21
2023-04-12T08:36:34.890Z,50.65
2023-04-12T08:39:01.909Z,51.41
2023-04-12T08:41:28.816Z,50.53
2023-04-12T08:43:59.590Z,50.97
2023-04-12T08:46:30.242Z,48.54
2023-04-12T08:48:58.429Z,50.13
2023-04-12T08:51:25.171Z,48.87
2023-04-12T08:53:52.964Z,46.17
2023-04-12T08:56:20.302Z,46.39
2023-04-12T08:58:49.876Z,47.88
2023-04-12T09:01:16.857Z,46.67
2023-04-12T09:03:44.437Z,44.48
2023-04-12T09:06:11.928Z,45.06
2023-04-12T09:08:54.016Z,47.20
2023-04-12T09:11:29.969Z,45.29
2023-04-12T09:13:57.660Z,45.66
2023-04-12T09:16:42.835Z,46.74
2023-04-12T09:19:09.690Z,44.76
2023-04-12T09:21:37.050Z,44.10
2023-04-12T09:24:11.044Z,44.67
2023-04-12T09:26:40.344Z,45.40
2023-04-12T09:29:21.903Z,44.55
2023-04-12T09:32:00.958Z,44.67
2023-04-12T09:34:28.120Z,43.45
2023-04-12T09:36:57.888Z,43.71
2023-04-12T09:39:32.051Z,45.14
2023-04-12T09:42:17.969Z,44.16
2023-04-12T09:44:53.142Z,44.75
2023-04-12T09:47:22.234Z,43.26
2023-04-12T09:49:51.716Z,42.97
2023-04-12T09:52:18.355Z,42.49
2023-04-12T09:54:50.318Z,41.68
2023-04-12T09:57:17.946Z,41.30
2023-04-12T09:59:44.778Z,40.33
2023-04-12T10:02:13.821Z,41.69
2023-04-12T10:04:43.453Z,40.76
2023-04-12T10:07:11.477Z,40.48
2023-04-12T10:09:41.717Z,41.19
2023-04-12T10:12:08.911Z,42.27
2023-04-12T10:14:38.053Z,40.55
2023-04-12T10:17:05.362Z,40.10
2023-04-12T10:19:33.613Z,41.32
2023-04-12T10:22:03.194Z,39.39
2023-04-12T10:24:35.317Z,38.78
2023-04-12T10:27:04.533Z,39.75
2023-04-12T10:29:33.078Z,39.69
2023-04-12T10:32:21.270Z,39.43
2023-04-12T10:34:55.121Z,39.55
2023-04-12T10:37:22.159Z,38.73
2023-04-12T10:39:55.192Z,40.25
2023-04-12T10:42:25.226Z,36.93
2023-04-12T10:45:00.930Z,36.62
2023-04-12T10:47:46.688Z,38.28
2023-04-12T10:50:21.446Z,36.85
2023-04-12T10:53:06.998Z,35.79
2023-04-12T10:55:33.783Z,35.43
2023-04-12T10:58:02.774Z,35.85
2023-04-12T11:00:48.315Z,35.49
2023-04-12T11:03:15.830Z,36.72
2023-04-12T11:06:02.778Z,36.23
2023-04-12T11:08:56.000Z,35.06
2023-04-12T11:11:24.760Z,35.83
2023-04-12T11:13:54.573Z,36.15
2023-04-12T11:16:21.593Z,34.62
2023-04-12T11:18:50.573Z,35.07
2023-04-12T11:21:17.265Z,34.75
2023-04-12T11:23:43.951Z,34.93
2023-04-12T11:26:11.026Z,35.28
2023-04-12T11:28:37.731Z,33.23
2023-04-12T11:31:04.657Z,33.36
2023-04-12T11:33:37.460Z,33.91
2023-04-12T11:36:12.382Z,32.94
2023-04-12T11:38:41.659Z,31.31
2023-04-12T11:41:11.991Z,32.34
2023-04-12T11:43:38.784Z,30.07
2023-04-12T11:46:05.623Z,29.86
2023-04-12T11:48:32.317Z,31.24
2023-04-12T11:51:10.409Z,30.31
2023-04-12T11:53:40.742Z,30.07
2023-04-12T11:56:08.488Z,29.46
2023-04-12T11:58:35.131Z,30.10
2023-04-12T12:01:02.260Z,31.64
2023-04-12T12:03:29.681Z,31.08
2023-04-12T12:05:56.643Z,29.44
2023-04-12T12:08:24.524Z,29.01
2023-04-12T12:11:06.558Z,30.70
2023-04-12T12:13:53.656Z,29.98
2023-04-12T12:16:28.043Z,29.91
2023-04-12T12:18:57.226Z,29.75
2023-04-12T12:21:23.895Z,30.73
2023-04-12T12:23:53.252Z,29.53
2023-04-12T12:26:27.140Z,25.95
2023-04-12T12:28:54.525Z,27.35
2023-04-12T12:31:22.268Z,27.07
2023-04-12T12:33:53.665Z,26.68
2023-04-12T12:36:23.146Z,27.29
2023-04-12T12:38:52.966Z,25.95
2023-04-12T12:41:21.319Z,27.13
2023-04-12T12:43:54.478Z,25.59
2023-04-12T12:46:24.407Z,25.66
2023-04-12T12:48:51.443Z,24.65
2023-04-12T12:51:20.589Z,24.01
2023-04-12T12:53:47.431Z,23.03
2023-04-12T12:56:14.700Z,23.22
2023-04-12T12:58:41.868Z,22.75
2023-04-12T13:01:09.121Z,22.17
2023-04-12T13:03:35.997Z,21.27
2023-04-12T13:06:02.777Z,23.03
2023-04-12T13:08:35.367Z,22.64
2023-04-12T13:11:02.497Z,23.32
2023-04-12T13:13:31.692Z,21.78
2023-04-12T13:16:03.325Z,19.99
2023-04-12T13:18:40.880Z,19.54
2023-04-12T13:21:14.120Z,19.13
2023-04-12T13:23:41.301Z,19.05
2023-04-12T13:26:08.246Z,19.03
2023-04-12T13:28:34.997Z,17.90
2023-04-12T13:31:01.747Z,18.68
2023-04-12T13:33:28.475Z,18.43
2023-04-12T13:35:55.236Z,18.20
2023-04-12T13:38:24.201Z,17.63
2023-04-12T13:40:50.918Z,17.45
2023-04-12T13:43:20.032Z,15.77
2023-04-12T13:45:46.801Z,16.27
2023-04-12T13:48:13.535Z,15.55
2023-04-12T13:50:42.738Z,14.70
2023-04-12T13:53:11.768Z,15.92
2023-04-12T13:55:38.756Z,15.47
2023-04-12T13:58:06.933Z,15.37
2023-04-12T14:00:33.600Z,15.05
2023-04-12T14:03:03.481Z,14.78
2023-04-12T14:05:30.699Z,13.94
2023-04-12T14:08:02.110Z,14.75
2023-04-12T14:10:28.905Z,13.36
2023-04-12T14:12:56.189Z,13.60
2023-04-12T14:15:25.256Z,14.08
2023-04-12T14:17:54.640Z,13.51
2023-04-12T14:20:23.521Z,12.39
2023-04-12T14:22:50.528Z,13.48
2023-04-12T14:25:17.397Z,11.73
2023-04-12T14:27:44.364Z,11.68
2023-04-12T14:30:11.184Z,11.92
2023-04-12T14:32:37.980Z,11.47
2023-04-12T14:35:05.262Z,8.65
2023-04-12T14:37:32.983Z,11.07
2023-04-12T14:39:59.640Z,10.33
2023-04-12T14:42:26.369Z,10.29
2023-04-12T14:44:53.503Z,11.57
2023-04-12T14:47:22.518Z,9.90
2023-04-12T14:49:51.635Z,10.02
2023-04-12T14:52:21.267Z,10.54
2023-04-12T14:54:47.976Z,10.02
2023-04-12T14:57:15.535Z,11.72
2023-04-12T14:59:44.644Z,9.83
2023-04-12T15:02:11.685Z,10.10
2023-04-12T15:04:38.472Z,10.54
2023-04-12T15:07:05.155Z,11.43
2023-04-12T15:09:32.039Z,10.70
2023-04-12T15:12:01.802Z,10.82
2023-04-12T15:14:30.942Z,10.18
2023-04-12T15:16:59.999Z,10.40
2023-04-12T15:19:27.441Z,11.09
2023-04-12T15:21:55.471Z,10.77
2023-04-12T15:24:24.565Z,10.86
2023-04-12T15:26:54.155Z,11.58
2023-04-12T15:29:25.017Z,10.00
2023-04-12T15:31:51.812Z,10.75
2023-04-12T15:34:23.266Z,9.69
2023-04-12T15:36:49.925Z,12.47
2023-04-12T15:39:21.649Z,12.28
2023-04-12T15:41:48.227Z,11.01
2023-04-12T15:44:17.745Z,11.48
2023-04-12T15:46:56.001Z,11.54
2023-04-12T15:49:30.061Z,12.23
2023-04-12T15:51:59.114Z,12.73
2023-04-12T15:54:25.732Z,12.94
2023-04-12T15:56:55.025Z,13.42
2023-04-12T15:59:21.647Z,14.29
2023-04-12T16:01:53.436Z,13.21
2023-04-12T16:04:23.228Z,13.98
2023-04-12T16:06:50.620Z,14.12
2023-04-12T16:09:22.489Z,14.33
2023-04-12T16:11:51.394Z,14.84
2023-04-12T16:14:18.075Z,14.77
2023-04-12T16:16:45.004Z,15.01
2023-04-12T16:19:39.855Z,14.74
2023-04-12T16:22:06.436Z,15.13
2023-04-12T16:24:33.150Z,15.79
2023-04-12T16:27:00.699Z,16.65
2023-04-12T16:29:27.506Z,18.22
2023-04-12T16:31:54.304Z,19.29
2023-04-12T16:34:22.436Z,20.00
2023-04-12T16:36:49.202Z,19.90
2023-04-12T16:39:18.512Z,20.10
2023-04-12T16:41:47.025Z,21.38
2023-04-12T16:44:19.609Z,21.68
2023-04-12T16:46:47.156Z,22.01
2023-04-12T16:49:13.866Z,22.08
2023-04-12T16:51:43.001Z,21.56
2023-04-12T16:54:09.607Z,21.67
2023-04-12T16:56:38.609Z,21.67
2023-04-12T16:59:05.278Z,22.72
2023-04-12T17:01:34.674Z,22.84
2023-04-12T17:04:01.899Z,23.39
2023-04-12T17:06:33.930Z,24.12
2023-04-12T17:09:05.744Z,24.44
2023-04-12T17:11:36.171Z,24.87
2023-04-12T17:14:02.990Z,25.19
2023-04-12T17:16:29.615Z,25.71
2023-04-12T17:18:56.530Z,25.65
2023-04-12T17:21:24.405Z,25.01
2023-04-12T17:23:51.604Z,25.60
2023-04-12T17:26:19.417Z,25.42
2023-04-12T17:28:46.501Z,25.76
2023-04-12T17:31:16.117Z,25.69
2023-04-12T17:33:45.428Z,26.30
2023-04-12T17:36:12.069Z,26.17
2023-04-12T17:38:41.685Z,25.68
2023-04-12T17:41:09.455Z,25.52
2023-04-12T17:43:36.265Z,26.10
2023-04-12T17:46:04.153Z,25.73
2023-04-12T17:48:31.984Z,26.35
2023-04-12T17:50:59.934Z,26.68
2023-04-12T17:53:26.661Z,26.21
2023-04-12T17:55:53.215Z,26.43
2023-04-12T17:58:19.888Z,26.60
2023-04-12T18:00:46.576Z,26.58
2023-04-12T18:03:17.011Z,26.87
2023-04-12T18:05:46.590Z,26.88
2023-04-12T18:08:16.766Z,27.16
2023-04-12T18:10:46.599Z,27.06
2023-04-12T18:13:14.169Z,26.68
2023-04-12T18:15:40.897Z,26.64
2023-04-12T18:18:08.061Z,27.42
2023-04-12T18:20:37.119Z,27.74
2023-04-12T18:23:03.799Z,28.39
2023-04-12T18:25:30.570Z,27.67
2023-04-12T18:27:59.955Z,27.21
2023-04-12T18:30:26.546Z,26.83
2023-04-12T18:32:58.325Z,27.05
2023-04-12T18:35:25.115Z,26.92
2023-04-12T18:37:54.194Z,27.18
2023-04-12T18:40:21.656Z,27.78
2023-04-12T18:42:48.426Z,28.19
2023-04-12T18:45:17.771Z,28.10
2023-04-12T18:47:46.892Z,28.59
2023-04-12T18:50:14.628Z,29.56
2023-04-12T18:52:43.700Z,29.04
2023-04-12T18:55:12.738Z,29.15
2023-04-12T18:57:48.998Z,30.00
2023-04-12T19:00:19.801Z,29.94
2023-04-12T19:02:48.876Z,29.46
2023-04-12T19:05:15.551Z,30.23
2023-04-12T19:07:44.893Z,30.46
2023-04-12T19:10:13.921Z,30.23
2023-04-12T19:12:40.642Z,30.48
2023-04-12T19:15:08.632Z,30.17
2023-04-12T19:17:39.050Z,30.43
2023-04-12T19:20:10.899Z,30.19
2023-04-12T19:22:39.955Z,29.28
2023-04-12T19:25:09.834Z,30.56
2023-04-12T19:27:37.191Z,29.16
2023-04-12T19:30:04.146Z,29.15
2023-04-12T19:32:33.381Z,30.25
2023-04-12T19:35:02.706Z,30.96
2023-04-12T19:37:35.063Z,30.81
2023-04-12T19:40:05.410Z,31.19
2023-04-12T19:42:32.100Z,32.99
2023-04-12T19:45:00.701Z,35.27
2023-04-12T19:47:27.489Z,35.84
2023-04-12T19:49:54.288Z,35.79
2023-04-12T19:52:23.463Z,35.88
2023-04-12T19:54:56.569Z,35.42
2023-04-12T19:57:24.669Z,34.55
2023-04-12T19:59:52.130Z,34.22
2023-04-12T20:02:21.798Z,34.14
2023-04-12T20:04:50.785Z,35.43
2023-04-12T20:07:17.548Z,34.60
2023-04-12T20:09:44.938Z,33.92
2023-04-12T20:12:11.672Z,33.84
2023-04-12T20:14:39.408Z,34.61
2023-04-12T20:17:08.821Z,34.34
2023-04-12T20:19:36.250Z,34.17
2023-04-12T20:22:07.215Z,33.83
2023-04-12T20:24:39.589Z,34.68
2023-04-12T20:27:07.435Z,34.67
2023-04-12T20:29:36.094Z,34.40
2023-04-12T20:32:05.299Z,35.17
2023-04-12T20:34:32.280Z,35.89
2023-04-12T20:37:01.252Z,36.18
2023-04-12T20:39:29.590Z,36.70
2023-04-12T20:42:00.928Z,36.47
2023-04-12T20:44:32.184Z,37.08
2023-04-12T20:47:02.300Z,35.21
2023-04-12T20:49:30.226Z,36.61
2023-04-12T20:51:58.938Z,35.15
2023-04-12T20:54:31.241Z,35.28
2023-04-12T20:57:00.572Z,34.96
2023-04-12T20:59:30.579Z,34.77
2023-04-12T21:02:00.531Z,35.18
2023-04-12T21:04:30.605Z,34.99
2023-04-12T21:06:57.545Z,35.56
2023-04-12T21:09:24.439Z,35.97
2023-04-12T21:11:53.666Z,36.40
2023-04-12T21:14:20.763Z,36.51
2023-04-12T21:16:50.889Z,36.47
2023-04-12T21:19:20.519Z,36.23
2023-04-12T21:21:47.441Z,35.89
2023-04-12T21:24:14.025Z,36.36
2023-04-12T21:26:43.750Z,36.39
2023-04-12T21:29:11.587Z,36.90
2023-04-12T21:31:41.625Z,37.06
2023-04-12T21:34:13.375Z,36.86
2023-04-12T21:36:40.207Z,37.27
2023-04-12T21:39:08.185Z,37.23
2023-04-12T21:41:39.747Z,37.34
2023-04-12T21:44:07.316Z,37.22
2023-04-12T21:46:34.037Z,37.14
2023-04-12T21:49:01.017Z,37.07
2023-04-12T21:51:28.301Z,37.76
2023-04-12T21:53:54.909Z,37.91
2023-04-12T21:56:21.580Z,37.60
2023-04-12T21:58:48.375Z,38.23
2023-04-12T22:01:15.799Z,38.65
2023-04-12T22:03:43.615Z,38.73
2023-04-12T22:06:11.784Z,39.03
2023-04-12T22:08:42.672Z,38.32
2023-04-12T22:11:12.349Z,39.58
2023-04-12T22:13:41.782Z,39.88
2023-04-12T22:16:14.650Z,40.11
2023-04-12T22:18:41.480Z,39.60
2023-04-12T22:21:08.295Z,39.61
2023-04-12T22:23:40.684Z,39.48
2023-04-12T22:26:14.361Z,39.39
2023-04-12T22:28:44.371Z,39.71
2023-04-12T22:31:14.982Z,39.28
2023-04-12T22:33:47.411Z,39.73
2023-04-12T22:36:17.737Z,40.09
2023-04-12T22:38:44.786Z,41.09
2023-04-12T22:41:15.759Z,41.23
2023-04-12T22:43:42.381Z,40.94
2023-04-12T22:46:15.720Z,41.12
2023-04-12T22:48:45.981Z,40.52
2023-04-12T22:51:12.743Z,40.56
2023-04-12T22:53:41.734Z,40.69
2023-04-12T22:56:08.966Z,40.50
2023-04-12T22:58:37.100Z,40.70
2023-04-12T23:01:05.942Z,40.86
2023-04-12T23:03:32.532Z,40.22
2023-04-12T23:06:02.057Z,40.49
2023-04-12T23:08:29.294Z,39.77
2023-04-12T23:11:03.368Z,39.44
2023-04-12T23:13:33.878Z,39.48
2023-04-12T23:16:03.910Z,39.69
2023-04-12T23:18:33.805Z,39.52
2023-04-12T23:21:01.822Z,39.89
2023-04-12T23:23:30.987Z,40.28
2023-04-12T23:25:57.582Z,40.28
2023-04-12T23:28:25.864Z,40.24
2023-04-12T23:30:52.697Z,40.04
2023-04-12T23:33:20.415Z,40.60
2023-04-12T23:35:49.310Z,42.50
2023-04-12T23:38:23.238Z,42.41
2023-04-12T23:40:54.431Z,41.59
2023-04-12T23:43:21.641Z,41.87
2023-04-12T23:45:54.011Z,41.95
2023-04-12T23:48:23.499Z,42.11
2023-04-12T23:50:52.755Z,41.90
2023-04-12T23:53:21.873Z,41.74
2023-04-12T23:55:53.645Z,41.85
2023-04-12T23:58:25.529Z,42.32
